createdAt,value
2022-12-18T00:01:28.388Z,-5.04
2022-12-18T00:03:56.918Z,-4.97
2022-12-18T00:06:25.160Z,-4.97
2022-12-18T00:08:52.127Z,-4.89
2022-12-18T00:11:21.501Z,-5.00
2022-12-18T00:13:49.180Z,-5.13
2022-12-18T00:16:21.229Z,-5.26
2022-12-18T00:18:49.638Z,-5.24
2022-12-18T00:21:16.504Z,-5.17
2022-12-18T00:23:44.759Z,-5.20
2022-12-18T00:26:18.085Z,-5.11
2022-12-18T00:28:46.070Z,-5.10
2022-12-18T00:31:15.977Z,-5.13
2022-12-18T00:33:43.799Z,-5.13
2022-12-18T00:36:13.407Z,-5.14
2022-12-18T00:38:40.133Z,-5.06
2022-12-18T00:41:08.488Z,-5.20
2022-12-18T00:43:35.813Z,-5.18
2022-12-18T00:46:03.249Z,-5.30
2022-12-18T00:48:30.226Z,-5.38
2022-12-18T00:50:57.029Z,-5.35
2022-12-18T00:53:23.776Z,-5.27
2022-12-18T00:55:50.420Z,-5.21
2022-12-18T00:58:17.795Z,-5.03
2022-12-18T01:00:44.860Z,-4.92
2022-12-18T01:03:15.018Z,-4.90
2022-12-18T01:05:42.929Z,-5.03
2022-12-18T01:08:09.700Z,-4.99
2022-12-18T01:10:36.505Z,-5.01
2022-12-18T01:13:03.049Z,-5.14
2022-12-18T01:15:29.780Z,-5.20
2022-12-18T01:17:56.414Z,-5.23
2022-12-18T01:20:23.209Z,-5.30
2022-12-18T01:22:49.946Z,-5.21
2022-12-18T01:25:16.513Z,-5.38
2022-12-18T01:27:43.886Z,-5.27
2022-12-18T01:30:11.311Z,-5.23
2022-12-18T01:32:38.337Z,-5.16
2022-12-18T01:35:05.522Z,-5.20
2022-12-18T01:37:32.016Z,-5.27
2022-12-18T01:39:58.563Z,-5.31
2022-12-18T01:42:26.520Z,-5.28
2022-12-18T01:45:25.860Z,-5.34
2022-12-18T01:47:56.196Z,-5.47
2022-12-18T01:50:25.485Z,-5.95
2022-12-18T01:52:57.399Z,-5.85
2022-12-18T01:55:27.231Z,-5.79
2022-12-18T01:57:57.041Z,-5.76
2022-12-18T02:00:25.651Z,-5.95
2022-12-18T02:02:53.623Z,-5.95
2022-12-18T02:05:32.477Z,-5.90
2022-12-18T02:08:14.856Z,-5.90
2022-12-18T02:11:05.289Z,-5.92
2022-12-18T02:13:38.184Z,-5.90
2022-12-18T02:16:27.844Z,-5.78
2022-12-18T02:18:59.914Z,-5.79
2022-12-18T02:21:47.020Z,-5.81
2022-12-18T02:24:27.740Z,-5.78
2022-12-18T02:26:59.295Z,-5.89
2022-12-18T02:29:40.060Z,-5.79
2022-12-18T02:32:11.516Z,-5.82
2022-12-18T02:34:40.210Z,-5.62
2022-12-18T02:37:11.926Z,-5.69
2022-12-18T02:39:41.311Z,-5.61
2022-12-18T02:42:08.991Z,-5.67
2022-12-18T02:44:42.426Z,-5.61
2022-12-18T02:47:12.388Z,-5.61
2022-12-18T02:50:01.594Z,-5.64
2022-12-18T02:52:34.483Z,-5.64
2022-12-18T02:55:13.154Z,-5.61
2022-12-18T02:57:51.274Z,-5.62
2022-12-18T03:00:24.945Z,-5.57
2022-12-18T03:03:03.877Z,-5.93
2022-12-18T03:05:36.419Z,-5.99
2022-12-18T03:08:20.010Z,-6.00
2022-12-18T03:11:08.631Z,-5.95
2022-12-18T03:13:45.464Z,-6.05
2022-12-18T03:16:16.373Z,-5.96
2022-12-18T03:18:53.102Z,-5.89
2022-12-18T03:21:28.054Z,-5.85
2022-12-18T03:23:56.057Z,-5.79
2022-12-18T03:26:26.721Z,-5.83
2022-12-18T03:29:11.110Z,-5.86
2022-12-18T03:31:41.011Z,-5.95
2022-12-18T03:34:14.315Z,-5.96
2022-12-18T03:36:41.368Z,-5.89
2022-12-18T03:39:08.221Z,-5.83
2022-12-18T03:41:36.861Z,-5.83
2022-12-18T03:44:44.750Z,-5.75
2022-12-18T03:47:17.797Z,-5.83
2022-12-18T03:49:50.279Z,-5.79
2022-12-18T03:52:29.091Z,-5.83
2022-12-18T03:54:59.163Z,-5.90
2022-12-18T03:57:29.369Z,-5.86
2022-12-18T04:00:00.918Z,-5.85
2022-12-18T04:02:29.798Z,-5.82
2022-12-18T04:05:00.997Z,-6.02
2022-12-18T04:07:28.540Z,-6.02
2022-12-18T04:09:59.087Z,-6.03
2022-12-18T04:12:27.163Z,-6.03
2022-12-18T04:14:53.857Z,-6.02
2022-12-18T04:17:20.463Z,-5.95
2022-12-18T04:19:47.098Z,-6.00
2022-12-18T04:22:13.775Z,-5.98
2022-12-18T04:24:40.396Z,-5.85
2022-12-18T04:27:07.659Z,-6.00
2022-12-18T04:29:34.676Z,-6.06
2022-12-18T04:32:01.280Z,-6.11
2022-12-18T04:34:29.045Z,-6.20
2022-12-18T04:36:55.928Z,-6.23
2022-12-18T04:39:22.691Z,-6.14
2022-12-18T04:41:49.226Z,-6.16
2022-12-18T04:44:15.850Z,-6.26
2022-12-18T04:46:43.358Z,-6.21
2022-12-18T04:49:11.595Z,-6.16
2022-12-18T04:51:38.296Z,-6.09
2022-12-18T04:54:05.206Z,-6.13
2022-12-18T04:56:32.415Z,-6.07
2022-12-18T04:58:59.066Z,-6.09
2022-12-18T05:01:30.952Z,-6.19
2022-12-18T05:04:01.269Z,-6.24
2022-12-18T05:06:27.916Z,-6.44
2022-12-18T05:08:54.799Z,-6.50
2022-12-18T05:11:21.526Z,-6.54
2022-12-18T05:13:48.246Z,-6.40
2022-12-18T05:16:15.567Z,-6.33
2022-12-18T05:18:42.682Z,-6.24
2022-12-18T05:21:09.285Z,-6.21
2022-12-18T05:23:36.196Z,-6.13
2022-12-18T05:26:05.672Z,-6.14
2022-12-18T05:28:34.274Z,-6.14
2022-12-18T05:31:03.191Z,-6.33
2022-12-18T05:33:32.804Z,-6.34
2022-12-18T05:36:02.063Z,-6.38
2022-12-18T05:38:30.249Z,-6.38
2022-12-18T05:40:57.730Z,-6.41
2022-12-18T05:43:25.797Z,-6.36
2022-12-18T05:45:53.781Z,-6.26
2022-12-18T05:48:21.544Z,-6.21
2022-12-18T05:50:50.385Z,-6.26
2022-12-18T05:53:19.042Z,-6.23
2022-12-18T05:55:46.489Z,-6.27
2022-12-18T05:58:14.344Z,-6.26
2022-12-18T06:00:44.300Z,-6.30
2022-12-18T06:03:13.129Z,-6.21
2022-12-18T06:05:42.761Z,-6.09
2022-12-18T06:08:10.134Z,-6.16
2022-12-18T06:10:36.880Z,-6.24
2022-12-18T06:13:03.751Z,-6.21
2022-12-18T06:15:30.550Z,-6.27
2022-12-18T06:17:57.164Z,-6.41
2022-12-18T06:20:26.050Z,-6.51
2022-12-18T06:22:55.730Z,-6.55
2022-12-18T06:25:22.299Z,-6.44
2022-12-18T06:27:49.016Z,-6.44
2022-12-18T06:30:16.116Z,-6.38
2022-12-18T06:32:42.672Z,-6.47
2022-12-18T06:35:09.456Z,-6.50
2022-12-18T06:37:35.956Z,-6.36
2022-12-18T06:40:02.668Z,-6.34
2022-12-18T06:42:29.922Z,-6.44
2022-12-18T06:44:56.463Z,-6.50
2022-12-18T06:47:23.117Z,-6.41
2022-12-18T06:49:49.675Z,-6.41
2022-12-18T06:52:17.426Z,-6.44
2022-12-18T06:54:44.067Z,-6.44
2022-12-18T06:57:10.622Z,-6.42
2022-12-18T06:59:37.254Z,-6.45
2022-12-18T07:02:03.978Z,-6.33
2022-12-18T07:04:31.436Z,-6.31
2022-12-18T07:06:58.431Z,-6.31
2022-12-18T07:09:25.426Z,-6.37
2022-12-18T07:11:52.827Z,-6.24
2022-12-18T07:14:19.442Z,-6.20
2022-12-18T07:16:46.173Z,-6.26
2022-12-18T07:19:12.753Z,-6.27
2022-12-18T07:21:39.421Z,-6.30
2022-12-18T07:24:06.696Z,-6.26
2022-12-18T07:26:33.373Z,-6.30
2022-12-18T07:28:59.998Z,-6.33
2022-12-18T07:31:27.238Z,-6.24
2022-12-18T07:33:54.887Z,-6.23
2022-12-18T07:36:21.852Z,-6.20
2022-12-18T07:38:49.367Z,-6.16
2022-12-18T07:41:17.042Z,-6.11
2022-12-18T07:43:44.418Z,-6.19
2022-12-18T07:46:13.552Z,-6.06
2022-12-18T07:48:41.263Z,-6.13
2022-12-18T07:51:08.756Z,-6.10
2022-12-18T07:53:36.916Z,-6.13
2022-12-18T07:58:54.669Z,-6.07
2022-12-18T08:01:21.581Z,-6.03
2022-12-18T08:03:48.357Z,-5.95
2022-12-18T08:06:15.967Z,-5.93
2022-12-18T08:08:43.150Z,-5.76
2022-12-18T08:11:09.841Z,-5.89
2022-12-18T08:13:36.668Z,-5.86
2022-12-18T08:16:06.315Z,-5.88
2022-12-18T08:18:34.002Z,-5.89
2022-12-18T08:21:31.384Z,-5.89
2022-12-18T08:24:00.293Z,-5.79
2022-12-18T08:26:29.529Z,-5.81
2022-12-18T08:28:57.278Z,-5.88
2022-12-18T08:31:25.086Z,-5.96
2022-12-18T08:33:53.299Z,-6.06
2022-12-18T08:36:21.531Z,-6.07
2022-12-18T08:38:48.653Z,-5.89
2022-12-18T08:41:17.105Z,-5.85
2022-12-18T08:44:02.386Z,-5.82
2022-12-18T08:46:35.444Z,-5.79
2022-12-18T08:49:02.325Z,-5.75
2022-12-18T08:51:29.681Z,-5.61
2022-12-18T08:53:56.261Z,-5.58
2022-12-18T08:56:22.938Z,-5.61
2022-12-18T08:58:53.139Z,-5.59
2022-12-18T09:01:19.877Z,-5.51
2022-12-18T09:03:48.018Z,-5.52
2022-12-18T09:06:16.849Z,-5.47
2022-12-18T09:08:44.844Z,-5.54
2022-12-18T09:11:15.204Z,-5.48
2022-12-18T09:13:42.406Z,-5.44
2022-12-18T09:16:09.445Z,-5.35
2022-12-18T09:18:36.125Z,-5.32
2022-12-18T09:21:12.400Z,-5.37
2022-12-18T09:23:39.017Z,-5.37
2022-12-18T09:26:05.743Z,-5.31
2022-12-18T09:28:32.416Z,-5.35
2022-12-18T09:30:59.500Z,-5.30
2022-12-18T09:33:26.215Z,-5.28
2022-12-18T09:35:52.761Z,-5.28
2022-12-18T09:38:20.689Z,-5.27
2022-12-18T09:40:56.404Z,-5.24
2022-12-18T09:43:36.893Z,-5.11
2022-12-18T09:46:08.585Z,-5.16
2022-12-18T09:48:43.475Z,-5.07
2022-12-18T09:51:17.078Z,-5.03
2022-12-18T09:53:51.425Z,-4.97
2022-12-18T09:56:23.645Z,-4.97
2022-12-18T09:58:59.524Z,-5.03
2022-12-18T10:01:36.299Z,-5.07
2022-12-18T10:04:09.922Z,-5.17
2022-12-18T10:07:16.874Z,-5.13
2022-12-18T10:09:58.707Z,-5.14
2022-12-18T10:12:51.391Z,-5.11
2022-12-18T10:15:46.504Z,-5.01
2022-12-18T10:18:47.808Z,-5.01
2022-12-18T10:21:20.135Z,-4.99
2022-12-18T10:24:09.152Z,-5.08
2022-12-18T10:26:35.968Z,-4.96
2022-12-18T10:29:11.975Z,-4.96
2022-12-18T10:31:38.630Z,-4.93
2022-12-18T10:34:05.636Z,-4.87
2022-12-18T10:36:32.154Z,-4.82
2022-12-18T10:39:16.957Z,-4.89
2022-12-18T10:41:43.549Z,-4.86
2022-12-18T10:44:24.206Z,-4.80
2022-12-18T10:46:56.998Z,-4.83
2022-12-18T10:49:27.574Z,-4.72
2022-12-18T10:52:22.462Z,-4.65
2022-12-18T10:54:52.945Z,-4.64
2022-12-18T10:57:33.528Z,-4.61
2022-12-18T11:00:21.299Z,-4.48
2022-12-18T11:02:48.150Z,-4.45
2022-12-18T11:05:47.023Z,-4.41
2022-12-18T11:08:23.730Z,-4.51
2022-12-18T11:10:50.478Z,-4.54
2022-12-18T11:13:23.758Z,-4.41
2022-12-18T11:15:51.670Z,-4.41
2022-12-18T11:18:24.811Z,-4.40
2022-12-18T11:21:08.241Z,-4.24
2022-12-18T11:23:36.500Z,-4.18
2022-12-18T11:26:05.394Z,-4.13
2022-12-18T11:28:53.036Z,-4.11
2022-12-18T11:31:28.773Z,-4.03
2022-12-18T11:34:30.399Z,-3.89
2022-12-18T11:37:00.025Z,-3.87
2022-12-18T11:39:41.520Z,-3.90
2022-12-18T11:42:47.167Z,-3.84
2022-12-18T11:45:17.502Z,-3.79
2022-12-18T11:47:47.402Z,-3.79
2022-12-18T11:50:18.328Z,-3.91
2022-12-18T11:52:45.786Z,-3.83
2022-12-18T11:55:21.938Z,-3.77
2022-12-18T11:58:00.813Z,-3.76
2022-12-18T12:00:29.423Z,-3.63
2022-12-18T12:03:17.990Z,-3.59
2022-12-18T12:06:04.377Z,-3.65
2022-12-18T12:08:50.902Z,-3.51
2022-12-18T12:11:52.613Z,-3.51
2022-12-18T12:14:34.210Z,-3.63
2022-12-18T12:17:09.992Z,-3.69
2022-12-18T12:19:49.377Z,-3.63
2022-12-18T12:22:49.432Z,-3.62
2022-12-18T12:25:34.438Z,-3.60
2022-12-18T12:28:03.988Z,-3.66
2022-12-18T12:30:43.335Z,-3.69
2022-12-18T12:33:37.266Z,-3.62
2022-12-18T12:36:30.403Z,-3.70
2022-12-18T12:39:02.042Z,-3.65
2022-12-18T12:41:52.004Z,-3.63
2022-12-18T12:44:44.629Z,-3.53
2022-12-18T12:47:20.289Z,-3.55
2022-12-18T12:52:56.710Z,-3.59
2022-12-18T12:55:29.337Z,-3.69
2022-12-18T12:58:24.132Z,-3.60
2022-12-18T13:00:55.839Z,-3.77
2022-12-18T13:03:43.702Z,-3.91
2022-12-18T13:06:20.015Z,-3.90
2022-12-18T13:09:12.946Z,-3.96
2022-12-18T13:12:06.616Z,-3.93
2022-12-18T13:14:42.359Z,-3.82
2022-12-18T13:17:35.171Z,-3.84
2022-12-18T13:20:07.172Z,-3.87
2022-12-18T13:22:40.123Z,-3.87
2022-12-18T13:25:36.715Z,-3.82
2022-12-18T13:28:07.329Z,-3.80
2022-12-18T13:30:34.047Z,-3.70
2022-12-18T13:33:18.099Z,-3.77
2022-12-18T13:35:47.980Z,-3.80
2022-12-18T13:38:27.012Z,-3.87
2022-12-18T13:41:17.809Z,-3.93
2022-12-18T13:43:50.568Z,-3.94
2022-12-18T13:46:25.587Z,-3.91
2022-12-18T13:48:59.239Z,-4.01
2022-12-18T13:51:27.246Z,-4.08
2022-12-18T13:54:03.478Z,-4.10
2022-12-18T13:56:33.259Z,-4.15
2022-12-18T13:59:15.617Z,-4.21
2022-12-18T14:01:54.658Z,-4.15
2022-12-18T14:04:27.091Z,-4.15
2022-12-18T14:07:06.835Z,-4.14
2022-12-18T14:09:42.364Z,-4.14
2022-12-18T14:12:39.695Z,-4.14
2022-12-18T14:15:21.196Z,-4.15
2022-12-18T14:17:48.780Z,-4.19
2022-12-18T14:20:16.547Z,-4.29
2022-12-18T14:22:50.682Z,-4.17
2022-12-18T14:25:20.564Z,-4.19
2022-12-18T14:27:52.994Z,-4.21
2022-12-18T14:30:33.065Z,-4.24
2022-12-18T14:33:20.175Z,-4.31
2022-12-18T14:35:59.393Z,-4.29
2022-12-18T14:38:40.330Z,-4.25
2022-12-18T14:41:10.247Z,-4.31
2022-12-18T14:43:39.296Z,-4.29
2022-12-18T14:46:26.628Z,-4.27
2022-12-18T14:48:54.281Z,-4.35
2022-12-18T14:51:28.011Z,-4.35
2022-12-18T14:54:09.126Z,-4.38
2022-12-18T14:56:37.837Z,-4.28
2022-12-18T14:59:16.013Z,-4.25
2022-12-18T15:01:55.365Z,-4.22
2022-12-18T15:04:29.819Z,-4.17
2022-12-18T15:07:11.875Z,-4.15
2022-12-18T15:09:40.691Z,-4.15
2022-12-18T15:12:34.020Z,-4.24
2022-12-18T15:15:00.683Z,-4.24
2022-12-18T15:17:28.056Z,-4.19
2022-12-18T15:20:01.556Z,-4.05
2022-12-18T15:22:30.585Z,-4.07
2022-12-18T15:24:59.151Z,-4.11
2022-12-18T15:27:38.554Z,-4.22
2022-12-18T15:30:11.109Z,-4.27
2022-12-18T15:32:39.074Z,-4.29
2022-12-18T15:35:08.449Z,-4.22
2022-12-18T15:37:35.412Z,-4.25
2022-12-18T15:40:03.153Z,-4.27
2022-12-18T15:42:48.846Z,-4.21
2022-12-18T15:45:16.119Z,-4.15
2022-12-18T15:47:44.654Z,-4.11
2022-12-18T15:50:11.544Z,-4.13
2022-12-18T15:52:44.334Z,-4.14
2022-12-18T15:55:41.216Z,-4.10
2022-12-18T15:58:10.304Z,-4.17
2022-12-18T16:00:39.352Z,-4.18
2022-12-18T16:03:06.471Z,-4.21
2022-12-18T16:05:33.808Z,-4.22
2022-12-18T16:08:00.348Z,-4.25
2022-12-18T16:10:27.663Z,-4.27
2022-12-18T16:12:54.416Z,-4.28
2022-12-18T16:15:24.793Z,-4.31
2022-12-18T16:17:52.660Z,-4.40
2022-12-18T16:20:21.984Z,-4.36
2022-12-18T16:22:50.253Z,-4.31
2022-12-18T16:25:22.285Z,-4.24
2022-12-18T16:27:49.816Z,-4.32
2022-12-18T16:30:23.046Z,-4.31
2022-12-18T16:32:50.550Z,-4.28
2022-12-18T16:35:17.744Z,-4.25
2022-12-18T16:37:45.833Z,-4.22
2022-12-18T16:40:14.888Z,-4.22
2022-12-18T16:42:44.097Z,-4.27
2022-12-18T16:45:17.136Z,-4.27
2022-12-18T16:47:44.217Z,-4.38
2022-12-18T16:50:11.071Z,-4.36
2022-12-18T16:52:37.775Z,-4.41
2022-12-18T16:55:04.871Z,-4.31
2022-12-18T16:57:31.583Z,-4.38
2022-12-18T17:00:04.417Z,-4.32
2022-12-18T17:02:32.180Z,-4.34
2022-12-18T17:04:59.118Z,-4.36
2022-12-18T17:07:26.838Z,-4.31
2022-12-18T17:09:54.344Z,-4.25
2022-12-18T17:12:21.551Z,-4.34
2022-12-18T17:14:48.139Z,-4.34
2022-12-18T17:17:23.747Z,-4.25
2022-12-18T17:19:51.912Z,-4.24
2022-12-18T17:22:18.998Z,-4.22
2022-12-18T17:24:46.685Z,-4.27
2022-12-18T17:27:13.465Z,-4.24
2022-12-18T17:29:45.380Z,-4.25
2022-12-18T17:32:14.311Z,-4.35
2022-12-18T17:34:41.061Z,-4.31
2022-12-18T17:37:08.186Z,-4.36
2022-12-18T17:39:35.345Z,-4.44
2022-12-18T17:42:20.668Z,-4.48
2022-12-18T17:44:47.169Z,-4.56
2022-12-18T17:47:14.077Z,-4.51
2022-12-18T17:49:40.963Z,-4.46
2022-12-18T17:52:07.994Z,-4.55
2022-12-18T17:54:37.749Z,-4.54
2022-12-18T17:57:04.314Z,-4.58
2022-12-18T17:59:31.465Z,-4.62
2022-12-18T18:01:58.155Z,-4.65
2022-12-18T18:04:24.829Z,-4.68
2022-12-18T18:06:51.414Z,-4.75
2022-12-18T18:09:17.966Z,-4.80
2022-12-18T18:12:04.297Z,-4.82
2022-12-18T18:14:31.839Z,-4.86
2022-12-18T18:17:04.651Z,-4.83
2022-12-18T18:19:32.908Z,-4.85
2022-12-18T18:21:59.581Z,-4.92
2022-12-18T18:24:26.383Z,-4.95
2022-12-18T18:26:53.331Z,-5.00
2022-12-18T18:29:22.737Z,-4.95
2022-12-18T18:31:50.062Z,-5.00
2022-12-18T18:34:26.013Z,-5.04
2022-12-18T18:36:52.963Z,-5.07
2022-12-18T18:39:19.813Z,-5.10
2022-12-18T18:41:48.263Z,-5.13
2022-12-18T18:44:17.324Z,-5.10
2022-12-18T18:46:45.068Z,-5.14
2022-12-18T18:49:13.505Z,-5.16
2022-12-18T18:51:41.165Z,-5.11
2022-12-18T18:54:07.949Z,-5.21
2022-12-18T18:57:11.995Z,-5.17
2022-12-18T18:59:24.417Z,-5.18
2022-12-18T19:01:58.086Z,-5.18
2022-12-18T19:04:24.769Z,-5.21
2022-12-18T19:06:51.427Z,-5.23
2022-12-18T19:09:18.360Z,-5.24
2022-12-18T19:12:03.560Z,-5.26
2022-12-18T19:14:30.229Z,-5.28
2022-12-18T19:16:57.529Z,-5.31
2022-12-18T19:19:25.270Z,-5.28
2022-12-18T19:21:52.220Z,-5.35
2022-12-18T19:24:18.766Z,-5.30
2022-12-18T19:26:45.314Z,-5.32
2022-12-18T19:29:14.634Z,-5.27
2022-12-18T19:31:41.585Z,-5.30
2022-12-18T19:34:09.521Z,-5.35
2022-12-18T19:36:38.778Z,-5.27
2022-12-18T19:39:15.461Z,-5.31
2022-12-18T19:41:42.811Z,-5.34
2022-12-18T19:44:12.155Z,-5.28
2022-12-18T19:46:40.672Z,-5.26
2022-12-18T19:49:17.323Z,-5.30
2022-12-18T19:51:45.288Z,-5.27
2022-12-18T19:54:16.357Z,-5.26
2022-12-18T19:56:44.235Z,-5.38
2022-12-18T19:59:10.830Z,-5.38
2022-12-18T20:01:37.556Z,-5.30
2022-12-18T20:04:04.896Z,-5.27
2022-12-18T20:06:46.038Z,-5.39
2022-12-18T20:09:12.800Z,-5.37
2022-12-18T20:11:41.790Z,-5.35
2022-12-18T20:14:12.976Z,-5.39
2022-12-18T20:16:40.437Z,-5.38
2022-12-18T20:19:08.571Z,-5.39
2022-12-18T20:21:35.971Z,-5.38
2022-12-18T20:24:02.729Z,-5.32
2022-12-18T20:26:29.827Z,-5.27
2022-12-18T20:28:56.599Z,-5.38
2022-12-18T20:31:23.937Z,-5.31
2022-12-18T20:33:52.254Z,-5.27
2022-12-18T20:36:24.578Z,-5.34
2022-12-18T20:38:58.220Z,-5.26
2022-12-18T20:41:31.655Z,-5.26
2022-12-18T20:44:13.727Z,-5.21
2022-12-18T20:46:52.380Z,-5.16
2022-12-18T20:49:19.065Z,-5.14
2022-12-18T20:51:46.106Z,-5.11
2022-12-18T20:54:12.882Z,-5.20
2022-12-18T20:56:39.482Z,-5.21
2022-12-18T20:59:06.219Z,-5.26
2022-12-18T21:01:32.907Z,-5.28
2022-12-18T21:04:00.633Z,-5.24
2022-12-18T21:06:27.474Z,-5.20
2022-12-18T21:08:54.072Z,-5.16
2022-12-18T21:11:39.211Z,-5.11
2022-12-18T21:14:30.749Z,-5.16
2022-12-18T21:17:00.823Z,-5.10
2022-12-18T21:19:28.183Z,-5.16
2022-12-18T21:21:56.035Z,-5.08
2022-12-18T21:24:23.524Z,-5.20
2022-12-18T21:26:50.620Z,-5.18
2022-12-18T21:29:23.231Z,-5.16
2022-12-18T21:31:51.191Z,-5.11
2022-12-18T21:34:23.516Z,-5.14
2022-12-18T21:36:50.144Z,-5.10
2022-12-18T21:39:17.578Z,-5.14
2022-12-18T21:42:03.780Z,-5.17
2022-12-18T21:44:31.584Z,-5.13
2022-12-18T21:47:14.548Z,-5.11
2022-12-18T21:49:53.177Z,-5.28
2022-12-18T21:52:27.248Z,-5.28
2022-12-18T21:55:07.932Z,-5.23
2022-12-18T21:57:36.896Z,-5.20
2022-12-18T22:00:04.932Z,-5.23
2022-12-18T22:02:32.497Z,-5.10
2022-12-18T22:04:59.165Z,-5.18
2022-12-18T22:07:26.588Z,-5.10
2022-12-18T22:09:53.138Z,-5.14
2022-12-18T22:12:35.331Z,-5.14
2022-12-18T22:15:04.439Z,-5.20
2022-12-18T22:17:31.070Z,-5.13
2022-12-18T22:19:58.261Z,-5.11
2022-12-18T22:22:24.868Z,-5.04
2022-12-18T22:24:51.559Z,-5.01
2022-12-18T22:27:18.118Z,-5.04
2022-12-18T22:30:03.201Z,-5.03
2022-12-18T22:32:31.709Z,-5.07
2022-12-18T22:35:05.839Z,-5.10
2022-12-18T22:37:33.908Z,-5.10
2022-12-18T22:40:03.274Z,-5.10
2022-12-18T22:42:30.745Z,-5.08
2022-12-18T22:44:57.414Z,-5.08
2022-12-18T22:47:29.195Z,-4.97
2022-12-18T22:49:56.637Z,-4.90
2022-12-18T22:52:23.849Z,-4.92
2022-12-18T22:54:53.563Z,-4.92
2022-12-18T22:57:24.390Z,-4.89
2022-12-18T22:59:51.639Z,-4.86
2022-12-18T23:02:19.582Z,-4.86
2022-12-18T23:04:47.617Z,-4.99
2022-12-18T23:07:14.373Z,-4.89
2022-12-18T23:09:40.984Z,-4.96
2022-12-18T23:12:07.963Z,-4.93
2022-12-18T23:14:34.776Z,-4.85
2022-12-18T23:17:01.463Z,-4.82
2022-12-18T23:19:28.033Z,-4.82
2022-12-18T23:21:57.149Z,-4.95
2022-12-18T23:24:25.810Z,-4.87
2022-12-18T23:26:52.421Z,-4.89
2022-12-18T23:29:19.350Z,-4.89
2022-12-18T23:31:46.124Z,-4.87
2022-12-18T23:34:14.251Z,-4.87
2022-12-18T23:36:45.466Z,-4.90
2022-12-18T23:39:22.594Z,-4.89
2022-12-18T23:41:56.267Z,-4.89
2022-12-18T23:44:22.986Z,-4.80
2022-12-18T23:46:49.647Z,-4.82
2022-12-18T23:49:16.273Z,-4.83
2022-12-18T23:51:42.987Z,-4.89
2022-12-18T23:54:10.675Z,-4.90
2022-12-18T23:56:37.364Z,-4.87
2022-12-18T23:59:04.031Z,-4.95
